createdAt,value
2017-07-12T00:00:01.416Z,14.8
2017-07-12T00:05:01.217Z,14.6
2017-07-12T00:10:01.944Z,14.5
2017-07-12T00:15:01.552Z,14.5
2017-07-12T00:20:01.268Z,14.5
2017-07-12T00:25:01.373Z,14.4
2017-07-12T00:30:02.154Z,14.3
2017-07-12T00:35:01.359Z,14.3
2017-07-12T00:40:02.089Z,14.2
2017-07-12T00:45:01.756Z,14.2
2017-07-12T00:50:01.503Z,14.2
2017-07-12T00:55:01.852Z,14.2
2017-07-12T01:00:01.686Z,14.2
2017-07-12T01:05:01.432Z,14.2
2017-07-12T01:10:02.139Z,14.2
2017-07-12T01:15:01.813Z,14.2
2017-07-12T01:20:01.497Z,14.2
2017-07-12T01:25:01.878Z,14.2
2017-07-12T01:30:01.675Z,14.2
2017-07-12T01:35:02.041Z,14.2
2017-07-12T01:40:01.770Z,14.2
2017-07-12T01:45:01.658Z,14.2
2017-07-12T01:50:01.480Z,14.1
2017-07-12T01:55:01.996Z,14.2
2017-07-12T02:00:02.077Z,14.2
2017-07-12T02:05:01.564Z,14.2
2017-07-12T02:10:01.573Z,14.2
2017-07-12T02:15:01.335Z,14.1
2017-07-12T02:20:02.127Z,14.2
2017-07-12T02:25:01.600Z,14.2
2017-07-12T02:30:01.837Z,14.2
2017-07-12T02:35:01.770Z,14.2
2017-07-12T02:40:01.447Z,14.2
2017-07-12T02:45:01.456Z,14.2
2017-07-12T02:50:01.265Z,14.2
2017-07-12T02:55:02.032Z,14.3
2017-07-12T03:00:02.141Z,14.3
2017-07-12T03:05:01.802Z,14.3
2017-07-12T03:10:01.552Z,14.3
2017-07-12T03:15:01.457Z,14.3
2017-07-12T03:20:02.076Z,14.4
2017-07-12T03:25:01.769Z,14.3
2017-07-12T03:30:01.804Z,14.3
2017-07-12T03:35:01.936Z,14.3
2017-07-12T03:40:01.952Z,14.4
2017-07-12T03:45:02.032Z,14.4
2017-07-12T03:50:02.069Z,14.4
2017-07-12T03:55:02.192Z,14.4
2017-07-12T04:00:01.586Z,14.4
2017-07-12T04:05:01.433Z,14.4
2017-07-12T04:10:01.415Z,14.4
2017-07-12T04:15:01.573Z,14.4
2017-07-12T04:20:01.275Z,14.5
2017-07-12T04:25:01.589Z,14.5
2017-07-12T04:30:01.746Z,14.5
2017-07-12T04:35:01.731Z,14.5
2017-07-12T04:40:01.446Z,14.6
2017-07-12T04:45:01.771Z,14.6
2017-07-12T04:50:01.671Z,14.6
2017-07-12T04:55:01.348Z,14.6
2017-07-12T05:00:01.408Z,14.7
2017-07-12T05:05:01.659Z,14.9
2017-07-12T05:10:01.682Z,14.9
2017-07-12T05:15:01.456Z,15
2017-07-12T05:20:01.370Z,15
2017-07-12T05:25:01.718Z,15
2017-07-12T05:30:01.719Z,15
2017-07-12T05:35:01.816Z,15
2017-07-12T05:40:01.527Z,15
2017-07-12T05:45:01.807Z,15
2017-07-12T05:50:01.782Z,15
2017-07-12T05:55:01.234Z,15
2017-07-12T06:00:01.348Z,15
2017-07-12T06:05:02.124Z,15
2017-07-12T06:10:02.276Z,15
2017-07-12T06:15:02.141Z,15
2017-07-12T06:20:01.801Z,15
2017-07-12T06:25:01.586Z,15
2017-07-12T06:30:01.802Z,15
2017-07-12T06:35:01.325Z,15
2017-07-12T06:40:02.096Z,15.2
2017-07-12T06:45:01.768Z,15.1
2017-07-12T06:50:01.709Z,15.1
2017-07-12T06:55:01.348Z,15.2
2017-07-12T07:00:01.391Z,15.3
2017-07-12T07:05:01.421Z,15.3
2017-07-12T07:10:01.632Z,15.3
2017-07-12T07:15:01.821Z,15.4
2017-07-12T07:20:01.446Z,15.4
2017-07-12T07:25:02.167Z,15.4
2017-07-12T07:30:01.250Z,15.5
2017-07-12T07:35:01.524Z,15.5
2017-07-12T07:40:01.271Z,15.5
2017-07-12T07:45:01.983Z,15.5
2017-07-12T07:50:01.233Z,15.6
2017-07-12T07:55:01.263Z,15.6
2017-07-12T08:00:01.312Z,15.6
2017-07-12T08:05:01.746Z,15.6
2017-07-12T08:10:01.818Z,15.6
2017-07-12T08:15:02.069Z,15.6
2017-07-12T08:20:01.838Z,15.7
2017-07-12T08:25:01.577Z,15.7
2017-07-12T08:30:01.575Z,16
2017-07-12T08:35:01.401Z,16
2017-07-12T08:40:01.298Z,16
2017-07-12T08:45:01.979Z,15.9
2017-07-12T08:50:01.963Z,15.9
2017-07-12T08:55:01.380Z,15.9
2017-07-12T09:00:02.179Z,15.9
2017-07-12T09:05:01.287Z,15.9
2017-07-12T09:10:01.396Z,15.9
2017-07-12T09:15:02.033Z,15.9
2017-07-12T09:20:01.680Z,16
2017-07-12T09:35:02.173Z,16.1
2017-07-12T09:40:01.895Z,16
2017-07-12T09:45:01.840Z,16
2017-07-12T09:50:01.719Z,16
2017-07-12T09:55:01.259Z,16.2
2017-07-12T10:00:01.970Z,16.2
2017-07-12T10:05:01.939Z,16.2
2017-07-12T10:10:01.792Z,16.2
2017-07-12T10:15:01.788Z,16.3
2017-07-12T10:20:01.646Z,16.3
2017-07-12T10:25:02.081Z,16.3
2017-07-12T10:30:01.636Z,16.3
2017-07-12T10:35:01.476Z,16.3
2017-07-12T10:40:02.162Z,16.3
2017-07-12T10:45:02.081Z,16.3
2017-07-12T10:50:02.133Z,16.3
2017-07-12T10:55:01.417Z,16.3
2017-07-12T11:00:01.770Z,16.2
2017-07-12T11:05:01.532Z,16.2
2017-07-12T11:10:01.420Z,16.2
2017-07-12T11:15:02.007Z,16.2
2017-07-12T11:20:01.710Z,16.3
2017-07-12T11:25:01.593Z,16.4
2017-07-12T11:30:01.974Z,16.4
2017-07-12T11:35:01.684Z,16.4
2017-07-12T11:40:01.757Z,16.4
2017-07-12T11:45:01.915Z,16.4
2017-07-12T11:50:01.827Z,16.4
2017-07-12T11:55:01.864Z,16.3
2017-07-12T12:00:01.298Z,16.2
2017-07-12T12:05:01.627Z,16.2
2017-07-12T12:10:01.502Z,16
2017-07-12T12:15:01.946Z,16
2017-07-12T12:20:01.633Z,16
2017-07-12T12:25:01.410Z,16
2017-07-12T12:30:01.698Z,16
2017-07-12T12:35:01.835Z,16
2017-07-12T12:40:01.463Z,15.8
2017-07-12T12:45:01.654Z,15.8
2017-07-12T12:50:01.575Z,15.8
2017-07-12T12:55:01.887Z,15.7
2017-07-12T13:00:01.242Z,15.7
2017-07-12T13:05:01.512Z,15.6
2017-07-12T13:10:02.115Z,15.6
2017-07-12T13:15:01.168Z,15.4
2017-07-12T13:20:01.956Z,15.3
2017-07-12T13:25:01.791Z,15.2
2017-07-12T13:30:01.493Z,15.2
2017-07-12T13:35:01.334Z,15
2017-07-12T13:40:01.914Z,15
2017-07-12T13:45:01.715Z,15
2017-07-12T13:50:01.844Z,15
2017-07-12T13:55:01.528Z,15
2017-07-12T14:00:02.152Z,15
2017-07-12T14:05:01.961Z,15
2017-07-12T14:10:01.842Z,15
2017-07-12T14:15:01.768Z,15
2017-07-12T14:20:01.515Z,15
2017-07-12T14:25:01.799Z,15
2017-07-12T14:30:01.900Z,15
2017-07-12T14:35:02.570Z,15
2017-07-12T14:40:02.164Z,15
2017-07-12T14:45:02.151Z,15
2017-07-12T14:50:02.052Z,15
2017-07-12T14:55:01.208Z,15
2017-07-12T15:00:01.352Z,15
2017-07-12T15:05:02.176Z,15
2017-07-12T15:10:01.319Z,15
2017-07-12T15:15:01.970Z,15
2017-07-12T15:20:01.797Z,15
2017-07-12T15:25:01.207Z,15
2017-07-12T15:30:01.229Z,15
2017-07-12T15:35:01.361Z,15
2017-07-12T15:40:02.074Z,15
2017-07-12T15:45:01.204Z,14.7
2017-07-12T15:50:01.359Z,14.7
2017-07-12T15:55:01.708Z,14.6
2017-07-12T16:00:01.734Z,14.6
2017-07-12T16:05:02.162Z,14.6
2017-07-12T16:10:02.020Z,14.6
2017-07-12T16:15:01.825Z,14.6
2017-07-12T16:20:01.754Z,14.6
2017-07-12T16:25:02.141Z,14.7
2017-07-12T16:30:01.171Z,14.8
2017-07-12T16:35:01.262Z,14.9
2017-07-12T16:40:01.659Z,15
2017-07-12T16:45:01.363Z,15
2017-07-12T16:50:01.725Z,15
2017-07-12T16:55:01.932Z,15
2017-07-12T17:00:01.930Z,14.8
2017-07-12T17:05:01.324Z,14.8
2017-07-12T17:10:01.717Z,14.8
2017-07-12T17:15:01.312Z,14.8
2017-07-12T17:20:01.205Z,15
2017-07-12T17:25:01.616Z,15
2017-07-12T17:30:01.411Z,15
2017-07-12T17:35:01.913Z,14.8
2017-07-12T17:40:02.165Z,14.7
2017-07-12T17:45:02.023Z,14.7
2017-07-12T17:50:01.665Z,14.7
2017-07-12T17:55:02.039Z,14.6
2017-07-12T18:00:02.077Z,14.6
2017-07-12T18:05:01.823Z,14.6
2017-07-12T18:10:01.844Z,14.5
2017-07-12T18:15:01.226Z,14.4
2017-07-12T18:20:01.251Z,14.4
2017-07-12T18:25:01.515Z,14.5
2017-07-12T18:30:01.423Z,14.5
2017-07-12T18:35:01.432Z,14.5
2017-07-12T18:40:01.444Z,14.4
2017-07-12T18:45:02.055Z,14.5
2017-07-12T18:50:02.133Z,14.5
2017-07-12T18:55:01.611Z,14.5
2017-07-12T19:00:01.921Z,14.5
2017-07-12T19:05:01.892Z,14.4
2017-07-12T19:10:01.850Z,14.3
2017-07-12T19:15:01.852Z,14.2
2017-07-12T19:20:02.164Z,14.2
2017-07-12T19:25:01.872Z,14.2
2017-07-12T19:30:01.896Z,13.9
2017-07-12T19:35:01.922Z,13.8
2017-07-12T19:40:01.672Z,13.8
2017-07-12T19:45:01.875Z,13.7
2017-07-12T19:50:01.621Z,13.6
2017-07-12T19:55:02.213Z,13.6
2017-07-12T20:00:01.701Z,13.5
2017-07-12T20:05:01.399Z,13.4
2017-07-12T20:10:01.414Z,13.4
2017-07-12T20:15:01.257Z,13.3
2017-07-12T20:20:02.142Z,13.3
2017-07-12T20:25:01.622Z,13.2
2017-07-12T20:30:01.599Z,13.2
2017-07-12T20:35:01.612Z,13.1
2017-07-12T20:40:01.470Z,13.2
2017-07-12T20:45:01.912Z,13.2
2017-07-12T20:50:01.654Z,13.2
2017-07-12T20:55:01.371Z,13.2
2017-07-12T21:00:01.462Z,13.2
2017-07-12T21:05:01.475Z,13.2
2017-07-12T21:10:01.177Z,13.2
2017-07-12T21:15:01.455Z,13.2
2017-07-12T21:20:01.336Z,13.2
2017-07-12T21:25:01.325Z,13.2
2017-07-12T21:30:01.348Z,13.3
2017-07-12T21:35:02.140Z,13.4
2017-07-12T21:40:02.010Z,13.4
2017-07-12T21:45:02.057Z,13.3
2017-07-12T21:50:02.660Z,13.3
2017-07-12T21:55:01.680Z,13.3
2017-07-12T22:00:01.879Z,13.2
2017-07-12T22:05:01.686Z,13.2
2017-07-12T22:10:01.702Z,13.2
2017-07-12T22:15:03.466Z,13.2
2017-07-12T22:20:01.711Z,13.2
2017-07-12T22:25:01.491Z,13.2
2017-07-12T22:30:01.387Z,13.2
2017-07-12T22:35:01.779Z,13.2
2017-07-12T22:40:02.056Z,13.1
2017-07-12T22:45:01.997Z,13.1
2017-07-12T22:50:02.249Z,13
2017-07-12T22:55:01.575Z,13
2017-07-12T23:00:01.539Z,13
2017-07-12T23:05:01.313Z,13
2017-07-12T23:10:02.293Z,13
2017-07-12T23:15:02.167Z,13
2017-07-12T23:20:01.815Z,13
2017-07-12T23:25:01.447Z,12.9
2017-07-12T23:30:01.243Z,13
2017-07-12T23:35:01.818Z,13
2017-07-12T23:40:01.613Z,13
2017-07-12T23:45:01.206Z,12.9
2017-07-12T23:50:01.997Z,12.9
2017-07-12T23:55:01.587Z,12.8
